sensor_id;sensor_type;location;lat;lon;timestamp;temperature;humidity
35894;DHT22;21994;48.204;16.516;2023-08-08T00:01:25;14.60;99.90
35894;DHT22;21994;48.204;16.516;2023-08-08T00:03:51;14.70;99.90
35894;DHT22;21994;48.204;16.516;2023-08-08T00:06:17;14.70;99.90
35894;DHT22;21994;48.204;16.516;2023-08-08T00:08:43;14.70;99.90
35894;DHT22;21994;48.204;16.516;2023-08-08T00:11:08;14.70;99.90
35894;DHT22;21994;48.204;16.516;2023-08-08T00:13:34;14.60;99.90
35894;DHT22;21994;48.204;16.516;2023-08-08T00:16:00;14.60;99.90
35894;DHT22;21994;48.204;16.516;2023-08-08T00:18:26;14.60;99.90
35894;DHT22;21994;48.204;16.516;2023-08-08T00:20:52;14.60;99.90
35894;DHT22;21994;48.204;16.516;2023-08-08T00:23:17;14.60;99.90
35894;DHT22;21994;48.204;16.516;2023-08-08T00:25:43;14.60;99.90
35894;DHT22;21994;48.204;16.516;2023-08-08T00:28:09;14.60;99.90
35894;DHT22;21994;48.204;16.516;2023-08-08T00:30:35;14.60;99.90
35894;DHT22;21994;48.204;16.516;2023-08-08T00:33:01;14.60;99.90
35894;DHT22;21994;48.204;16.516;2023-08-08T00:35:27;14.60;99.90
35894;DHT22;21994;48.204;16.516;2023-08-08T00:37:53;14.60;99.90
35894;DHT22;21994;48.204;16.516;2023-08-08T00:40:31;14.60;99.90
35894;DHT22;21994;48.204;16.516;2023-08-08T00:42:57;14.60;99.90
35894;DHT22;21994;48.204;16.516;2023-08-08T00:45:22;14.60;99.90
35894;DHT22;21994;48.204;16.516;2023-08-08T00:47:49;14.70;99.90
35894;DHT22;21994;48.204;16.516;2023-08-08T00:50:15;14.70;99.90
35894;DHT22;21994;48.204;16.516;2023-08-08T00:52:43;14.70;99.90
35894;DHT22;21994;48.204;16.516;2023-08-08T00:55:10;14.70;99.90
35894;DHT22;21994;48.204;16.516;2023-08-08T00:58:00;14.70;99.90
35894;DHT22;21994;48.204;16.516;2023-08-08T01:00:26;14.70;99.90
35894;DHT22;21994;48.204;16.516;2023-08-08T01:02:52;14.70;99.90
35894;DHT22;21994;48.204;16.516;2023-08-08T01:05:18;14.70;99.90
35894;DHT22;21994;48.204;16.516;2023-08-08T01:10:14;14.80;99.90
35894;DHT22;21994;48.204;16.516;2023-08-08T01:12:44;14.80;99.90
35894;DHT22;21994;48.204;16.516;2023-08-08T01:15:11;14.80;99.90
35894;DHT22;21994;48.204;16.516;2023-08-08T01:17:37;14.80;99.90
35894;DHT22;21994;48.204;16.516;2023-08-08T01:20:04;14.70;99.90
35894;DHT22;21994;48.204;16.516;2023-08-08T01:22:32;14.70;99.90
35894;DHT22;21994;48.204;16.516;2023-08-08T01:25:02;14.60;99.90
35894;DHT22;21994;48.204;16.516;2023-08-08T01:27:29;14.60;99.90
35894;DHT22;21994;48.204;16.516;2023-08-08T01:29:55;14.60;99.90
35894;DHT22;21994;48.204;16.516;2023-08-08T01:32:20;14.70;99.90
35894;DHT22;21994;48.204;16.516;2023-08-08T01:34:46;14.60;99.90
35894;DHT22;21994;48.204;16.516;2023-08-08T01:37:29;14.50;99.90
35894;DHT22;21994;48.204;16.516;2023-08-08T01:39:57;14.50;99.90
35894;DHT22;21994;48.204;16.516;2023-08-08T01:42:25;14.60;99.90
35894;DHT22;21994;48.204;16.516;2023-08-08T01:44:51;14.60;99.90
35894;DHT22;21994;48.204;16.516;2023-08-08T01:47:18;14.50;99.90
35894;DHT22;21994;48.204;16.516;2023-08-08T01:49:44;14.50;99.90
35894;DHT22;21994;48.204;16.516;2023-08-08T01:52:09;14.50;99.90
35894;DHT22;21994;48.204;16.516;2023-08-08T01:54:35;14.50;99.90
35894;DHT22;21994;48.204;16.516;2023-08-08T01:57:01;14.50;99.90
35894;DHT22;21994;48.204;16.516;2023-08-08T01:59:27;14.40;99.90
35894;DHT22;21994;48.204;16.516;2023-08-08T02:01:53;14.40;99.90
35894;DHT22;21994;48.204;16.516;2023-08-08T02:04:19;14.40;99.90
35894;DHT22;21994;48.204;16.516;2023-08-08T02:06:45;14.40;99.90
35894;DHT22;21994;48.204;16.516;2023-08-08T02:09:11;14.30;99.90
35894;DHT22;21994;48.204;16.516;2023-08-08T02:11:39;14.30;99.90
35894;DHT22;21994;48.204;16.516;2023-08-08T02:14:04;14.30;99.90
35894;DHT22;21994;48.204;16.516;2023-08-08T02:16:30;14.30;99.90
35894;DHT22;21994;48.204;16.516;2023-08-08T02:18:56;14.30;99.90
35894;DHT22;21994;48.204;16.516;2023-08-08T02:21:22;14.30;99.90
35894;DHT22;21994;48.204;16.516;2023-08-08T02:23:47;14.30;99.90
35894;DHT22;21994;48.204;16.516;2023-08-08T02:26:13;14.30;99.90
35894;DHT22;21994;48.204;16.516;2023-08-08T02:28:39;14.20;99.90
35894;DHT22;21994;48.204;16.516;2023-08-08T02:31:05;14.30;99.90
35894;DHT22;21994;48.204;16.516;2023-08-08T02:33:30;14.20;99.90
35894;DHT22;21994;48.204;16.516;2023-08-08T02:35:56;14.20;99.90
35894;DHT22;21994;48.204;16.516;2023-08-08T02:38:22;14.20;99.90
35894;DHT22;21994;48.204;16.516;2023-08-08T02:40:48;14.20;99.90
35894;DHT22;21994;48.204;16.516;2023-08-08T02:43:13;14.20;99.90
35894;DHT22;21994;48.204;16.516;2023-08-08T02:45:39;14.20;99.90
35894;DHT22;21994;48.204;16.516;2023-08-08T02:48:05;14.20;99.90
35894;DHT22;21994;48.204;16.516;2023-08-08T02:50:31;14.30;99.90
35894;DHT22;21994;48.204;16.516;2023-08-08T02:52:57;14.20;99.90
35894;DHT22;21994;48.204;16.516;2023-08-08T02:55:22;14.20;99.90
35894;DHT22;21994;48.204;16.516;2023-08-08T02:57:48;14.10;99.90
35894;DHT22;21994;48.204;16.516;2023-08-08T03:00:14;14.20;99.90
35894;DHT22;21994;48.204;16.516;2023-08-08T03:02:46;14.10;99.90
35894;DHT22;21994;48.204;16.516;2023-08-08T03:05:12;14.10;99.90
35894;DHT22;21994;48.204;16.516;2023-08-08T03:07:38;14.10;99.90
35894;DHT22;21994;48.204;16.516;2023-08-08T03:10:04;14.00;99.90
35894;DHT22;21994;48.204;16.516;2023-08-08T03:12:31;13.90;99.90
35894;DHT22;21994;48.204;16.516;2023-08-08T03:14:57;13.90;99.90
35894;DHT22;21994;48.204;16.516;2023-08-08T03:17:22;13.80;99.90
35894;DHT22;21994;48.204;16.516;2023-08-08T03:19:48;13.80;99.90
35894;DHT22;21994;48.204;16.516;2023-08-08T03:22:14;13.70;99.90
35894;DHT22;21994;48.204;16.516;2023-08-08T03:24:40;13.70;99.90
35894;DHT22;21994;48.204;16.516;2023-08-08T03:27:06;13.80;99.90
35894;DHT22;21994;48.204;16.516;2023-08-08T03:29:31;13.80;99.90
35894;DHT22;21994;48.204;16.516;2023-08-08T03:31:57;13.90;99.90
35894;DHT22;21994;48.204;16.516;2023-08-08T03:34:23;13.90;99.90
35894;DHT22;21994;48.204;16.516;2023-08-08T03:36:49;13.80;99.90
35894;DHT22;21994;48.204;16.516;2023-08-08T03:39:15;13.80;99.90
35894;DHT22;21994;48.204;16.516;2023-08-08T03:41:40;13.80;99.90
35894;DHT22;21994;48.204;16.516;2023-08-08T03:44:06;13.80;99.90
35894;DHT22;21994;48.204;16.516;2023-08-08T03:46:32;13.80;99.90
35894;DHT22;21994;48.204;16.516;2023-08-08T03:48:59;13.70;99.90
35894;DHT22;21994;48.204;16.516;2023-08-08T03:51:24;13.70;99.90
35894;DHT22;21994;48.204;16.516;2023-08-08T03:53:50;13.70;99.90
35894;DHT22;21994;48.204;16.516;2023-08-08T03:56:16;13.70;99.90
35894;DHT22;21994;48.204;16.516;2023-08-08T03:58:42;13.70;99.90
35894;DHT22;21994;48.204;16.516;2023-08-08T04:01:08;13.70;99.90
35894;DHT22;21994;48.204;16.516;2023-08-08T04:03:33;13.70;99.90
35894;DHT22;21994;48.204;16.516;2023-08-08T04:05:59;13.70;99.90
35894;DHT22;21994;48.204;16.516;2023-08-08T04:08:25;13.70;99.90
35894;DHT22;21994;48.204;16.516;2023-08-08T04:10:50;13.80;99.90
35894;DHT22;21994;48.204;16.516;2023-08-08T04:13:16;13.80;99.90
35894;DHT22;21994;48.204;16.516;2023-08-08T04:15:42;13.80;99.90
35894;DHT22;21994;48.204;16.516;2023-08-08T04:18:08;13.90;99.90
35894;DHT22;21994;48.204;16.516;2023-08-08T04:20:33;14.00;99.90
35894;DHT22;21994;48.204;16.516;2023-08-08T04:22:59;14.00;99.90
35894;DHT22;21994;48.204;16.516;2023-08-08T04:25:25;14.00;99.90
35894;DHT22;21994;48.204;16.516;2023-08-08T04:27:52;14.00;99.90
35894;DHT22;21994;48.204;16.516;2023-08-08T04:30:18;14.10;99.90
35894;DHT22;21994;48.204;16.516;2023-08-08T04:32:43;14.10;99.90
35894;DHT22;21994;48.204;16.516;2023-08-08T04:35:10;14.20;99.90
35894;DHT22;21994;48.204;16.516;2023-08-08T04:37:36;14.20;99.90
35894;DHT22;21994;48.204;16.516;2023-08-08T04:40:02;14.20;99.90
35894;DHT22;21994;48.204;16.516;2023-08-08T04:42:28;14.20;99.90
35894;DHT22;21994;48.204;16.516;2023-08-08T04:44:54;14.20;99.90
35894;DHT22;21994;48.204;16.516;2023-08-08T04:47:20;14.30;99.90
35894;DHT22;21994;48.204;16.516;2023-08-08T04:49:46;14.30;99.90
35894;DHT22;21994;48.204;16.516;2023-08-08T04:52:12;14.40;99.90
35894;DHT22;21994;48.204;16.516;2023-08-08T04:54:47;14.30;99.90
35894;DHT22;21994;48.204;16.516;2023-08-08T04:57:13;14.40;99.90
35894;DHT22;21994;48.204;16.516;2023-08-08T04:59:38;14.50;99.90
35894;DHT22;21994;48.204;16.516;2023-08-08T05:02:04;14.50;99.90
35894;DHT22;21994;48.204;16.516;2023-08-08T05:04:30;14.60;99.90
35894;DHT22;21994;48.204;16.516;2023-08-08T05:06:56;14.60;99.90
35894;DHT22;21994;48.204;16.516;2023-08-08T05:09:25;14.60;99.90
35894;DHT22;21994;48.204;16.516;2023-08-08T05:11:56;14.70;99.90
35894;DHT22;21994;48.204;16.516;2023-08-08T05:14:22;14.80;99.90
35894;DHT22;21994;48.204;16.516;2023-08-08T05:16:48;14.80;99.90
35894;DHT22;21994;48.204;16.516;2023-08-08T05:19:17;14.80;99.90
35894;DHT22;21994;48.204;16.516;2023-08-08T05:21:42;14.80;99.90
35894;DHT22;21994;48.204;16.516;2023-08-08T05:24:08;14.80;99.90
35894;DHT22;21994;48.204;16.516;2023-08-08T05:26:34;14.90;99.90
35894;DHT22;21994;48.204;16.516;2023-08-08T05:29:02;14.90;99.90
35894;DHT22;21994;48.204;16.516;2023-08-08T05:31:30;14.90;99.90
35894;DHT22;21994;48.204;16.516;2023-08-08T05:34:07;15.00;99.90
35894;DHT22;21994;48.204;16.516;2023-08-08T05:36:33;14.90;99.90
35894;DHT22;21994;48.204;16.516;2023-08-08T05:38:59;15.10;99.90
35894;DHT22;21994;48.204;16.516;2023-08-08T05:41:24;15.30;99.90
35894;DHT22;21994;48.204;16.516;2023-08-08T05:43:50;15.30;99.90
35894;DHT22;21994;48.204;16.516;2023-08-08T05:46:16;15.50;99.90
35894;DHT22;21994;48.204;16.516;2023-08-08T05:48:42;15.70;99.90
35894;DHT22;21994;48.204;16.516;2023-08-08T05:51:07;15.80;99.90
35894;DHT22;21994;48.204;16.516;2023-08-08T05:53:33;16.00;99.90
35894;DHT22;21994;48.204;16.516;2023-08-08T05:55:59;16.10;99.90
35894;DHT22;21994;48.204;16.516;2023-08-08T05:58:25;16.20;99.90
35894;DHT22;21994;48.204;16.516;2023-08-08T06:00:50;16.30;99.90
35894;DHT22;21994;48.204;16.516;2023-08-08T06:03:17;16.40;99.90
35894;DHT22;21994;48.204;16.516;2023-08-08T06:05:43;16.40;99.90
35894;DHT22;21994;48.204;16.516;2023-08-08T06:08:08;16.50;99.90
35894;DHT22;21994;48.204;16.516;2023-08-08T06:10:37;16.60;99.90
35894;DHT22;21994;48.204;16.516;2023-08-08T06:13:03;16.60;99.90
35894;DHT22;21994;48.204;16.516;2023-08-08T06:15:29;16.70;99.90
35894;DHT22;21994;48.204;16.516;2023-08-08T06:17:54;16.70;99.90
35894;DHT22;21994;48.204;16.516;2023-08-08T06:20:20;16.80;99.90
35894;DHT22;21994;48.204;16.516;2023-08-08T06:22:46;16.90;99.90
35894;DHT22;21994;48.204;16.516;2023-08-08T06:25:12;16.90;99.90
35894;DHT22;21994;48.204;16.516;2023-08-08T06:27:38;17.00;99.90
35894;DHT22;21994;48.204;16.516;2023-08-08T06:30:04;17.00;99.90
35894;DHT22;21994;48.204;16.516;2023-08-08T06:32:30;17.00;99.90
35894;DHT22;21994;48.204;16.516;2023-08-08T06:34:56;17.20;99.90
35894;DHT22;21994;48.204;16.516;2023-08-08T06:37:22;17.20;99.90
35894;DHT22;21994;48.204;16.516;2023-08-08T06:39:48;17.40;99.90
35894;DHT22;21994;48.204;16.516;2023-08-08T06:42:13;17.50;99.90
35894;DHT22;21994;48.204;16.516;2023-08-08T06:44:43;17.60;99.90
35894;DHT22;21994;48.204;16.516;2023-08-08T06:47:10;17.80;99.90
35894;DHT22;21994;48.204;16.516;2023-08-08T06:49:36;18.00;99.90
35894;DHT22;21994;48.204;16.516;2023-08-08T06:52:03;18.00;99.90
35894;DHT22;21994;48.204;16.516;2023-08-08T06:54:29;18.00;99.90
35894;DHT22;21994;48.204;16.516;2023-08-08T06:56:55;18.10;99.90
35894;DHT22;21994;48.204;16.516;2023-08-08T06:59:22;18.10;99.90
35894;DHT22;21994;48.204;16.516;2023-08-08T07:01:49;18.10;99.90
35894;DHT22;21994;48.204;16.516;2023-08-08T07:04:16;18.10;99.90
35894;DHT22;21994;48.204;16.516;2023-08-08T07:06:43;18.10;99.90
35894;DHT22;21994;48.204;16.516;2023-08-08T07:09:09;18.00;99.90
35894;DHT22;21994;48.204;16.516;2023-08-08T07:11:38;18.00;99.90
35894;DHT22;21994;48.204;16.516;2023-08-08T07:14:04;18.00;99.90
35894;DHT22;21994;48.204;16.516;2023-08-08T07:16:30;18.20;99.90
35894;DHT22;21994;48.204;16.516;2023-08-08T07:18:55;18.30;99.90
35894;DHT22;21994;48.204;16.516;2023-08-08T07:21:21;18.40;99.90
35894;DHT22;21994;48.204;16.516;2023-08-08T07:23:47;18.60;99.90
35894;DHT22;21994;48.204;16.516;2023-08-08T07:26:13;18.80;99.70
35894;DHT22;21994;48.204;16.516;2023-08-08T07:28:39;19.00;99.30
35894;DHT22;21994;48.204;16.516;2023-08-08T07:31:04;19.40;99.30
35894;DHT22;21994;48.204;16.516;2023-08-08T07:33:30;19.60;99.30
35894;DHT22;21994;48.204;16.516;2023-08-08T07:35:56;19.90;99.30
35894;DHT22;21994;48.204;16.516;2023-08-08T07:38:22;20.20;98.80
35894;DHT22;21994;48.204;16.516;2023-08-08T07:40:48;20.40;97.00
35894;DHT22;21994;48.204;16.516;2023-08-08T07:43:17;20.60;96.90
35894;DHT22;21994;48.204;16.516;2023-08-08T07:45:43;20.40;97.00
35894;DHT22;21994;48.204;16.516;2023-08-08T07:48:11;20.30;96.70
35894;DHT22;21994;48.204;16.516;2023-08-08T07:50:37;20.30;97.30
35894;DHT22;21994;48.204;16.516;2023-08-08T07:53:03;20.30;96.70
35894;DHT22;21994;48.204;16.516;2023-08-08T07:55:29;20.50;97.60
35894;DHT22;21994;48.204;16.516;2023-08-08T07:57:55;20.60;97.10
35894;DHT22;21994;48.204;16.516;2023-08-08T08:00:20;20.70;95.90
35894;DHT22;21994;48.204;16.516;2023-08-08T08:02:47;20.60;96.00
35894;DHT22;21994;48.204;16.516;2023-08-08T08:05:13;20.10;96.40
35894;DHT22;21994;48.204;16.516;2023-08-08T08:07:39;19.80;97.00
35894;DHT22;21994;48.204;16.516;2023-08-08T08:10:07;19.70;97.00
35894;DHT22;21994;48.204;16.516;2023-08-08T08:12:34;20.00;97.50
35894;DHT22;21994;48.204;16.516;2023-08-08T08:15:04;20.30;96.00
35894;DHT22;21994;48.204;16.516;2023-08-08T08:17:31;20.40;97.30
35894;DHT22;21994;48.204;16.516;2023-08-08T08:19:58;20.50;96.90
35894;DHT22;21994;48.204;16.516;2023-08-08T08:22:23;20.30;97.10
35894;DHT22;21994;48.204;16.516;2023-08-08T08:24:49;20.10;96.80
35894;DHT22;21994;48.204;16.516;2023-08-08T08:27:15;20.10;97.60
35894;DHT22;21994;48.204;16.516;2023-08-08T08:29:41;20.20;98.70
35894;DHT22;21994;48.204;16.516;2023-08-08T08:32:07;20.30;98.00
35894;DHT22;21994;48.204;16.516;2023-08-08T08:34:32;20.30;97.30
35894;DHT22;21994;48.204;16.516;2023-08-08T08:36:58;20.20;97.60
35894;DHT22;21994;48.204;16.516;2023-08-08T08:39:24;20.10;97.00
35894;DHT22;21994;48.204;16.516;2023-08-08T08:41:52;19.70;98.00
35894;DHT22;21994;48.204;16.516;2023-08-08T08:44:30;19.60;98.60
35894;DHT22;21994;48.204;16.516;2023-08-08T08:47:02;19.30;98.10
35894;DHT22;21994;48.204;16.516;2023-08-08T08:49:33;19.20;98.90
35894;DHT22;21994;48.204;16.516;2023-08-08T08:52:00;19.00;98.90
35894;DHT22;21994;48.204;16.516;2023-08-08T08:54:27;19.00;99.30
35894;DHT22;21994;48.204;16.516;2023-08-08T08:56:54;18.90;99.20
35894;DHT22;21994;48.204;16.516;2023-08-08T08:59:20;18.90;98.10
35894;DHT22;21994;48.204;16.516;2023-08-08T09:01:46;18.90;98.10
35894;DHT22;21994;48.204;16.516;2023-08-08T09:04:12;18.90;98.00
35894;DHT22;21994;48.204;16.516;2023-08-08T09:06:38;19.00;98.50
35894;DHT22;21994;48.204;16.516;2023-08-08T09:09:04;19.00;98.80
35894;DHT22;21994;48.204;16.516;2023-08-08T09:11:30;19.10;98.40
35894;DHT22;21994;48.204;16.516;2023-08-08T09:13:56;19.20;98.30
35894;DHT22;21994;48.204;16.516;2023-08-08T09:16:22;19.30;97.60
35894;DHT22;21994;48.204;16.516;2023-08-08T09:18:48;19.40;98.20
35894;DHT22;21994;48.204;16.516;2023-08-08T09:21:37;19.50;97.20
35894;DHT22;21994;48.204;16.516;2023-08-08T09:24:03;19.70;97.60
35894;DHT22;21994;48.204;16.516;2023-08-08T09:26:38;19.90;97.50
35894;DHT22;21994;48.204;16.516;2023-08-08T09:29:18;20.00;96.70
35894;DHT22;21994;48.204;16.516;2023-08-08T09:31:46;20.20;96.70
35894;DHT22;21994;48.204;16.516;2023-08-08T09:35:12;20.70;96.10
35894;DHT22;21994;48.204;16.516;2023-08-08T09:38:06;21.80;94.90
35894;DHT22;21994;48.204;16.516;2023-08-08T09:44:30;23.40;93.40
35894;DHT22;21994;48.204;16.516;2023-08-08T09:47:59;24.10;94.10
35894;DHT22;21994;48.204;16.516;2023-08-08T09:50:59;24.80;91.60
35894;DHT22;21994;48.204;16.516;2023-08-08T09:53:46;25.30;90.90
35894;DHT22;21994;48.204;16.516;2023-08-08T10:05:10;25.80;87.60
35894;DHT22;21994;48.204;16.516;2023-08-08T10:19:40;23.50;91.30
35894;DHT22;21994;48.204;16.516;2023-08-08T10:22:35;23.10;90.70
35894;DHT22;21994;48.204;16.516;2023-08-08T10:25:07;22.50;91.20
35894;DHT22;21994;48.204;16.516;2023-08-08T10:28:19;22.30;91.70
35894;DHT22;21994;48.204;16.516;2023-08-08T10:37:26;24.50;90.30
35894;DHT22;21994;48.204;16.516;2023-08-08T10:39:58;26.10;86.70
35894;DHT22;21994;48.204;16.516;2023-08-08T10:43:26;26.00;87.10
35894;DHT22;21994;48.204;16.516;2023-08-08T10:46:05;26.60;83.90
35894;DHT22;21994;48.204;16.516;2023-08-08T10:48:52;26.90;82.50
35894;DHT22;21994;48.204;16.516;2023-08-08T10:55:41;27.40;85.70
35894;DHT22;21994;48.204;16.516;2023-08-08T10:58:19;29.00;81.40
35894;DHT22;21994;48.204;16.516;2023-08-08T11:01:47;28.40;76.80
35894;DHT22;21994;48.204;16.516;2023-08-08T11:07:15;25.70;81.10
35894;DHT22;21994;48.204;16.516;2023-08-08T11:09:49;26.00;80.60
35894;DHT22;21994;48.204;16.516;2023-08-08T11:12:15;26.10;81.20
35894;DHT22;21994;48.204;16.516;2023-08-08T11:14:49;26.40;80.20
35894;DHT22;21994;48.204;16.516;2023-08-08T11:17:28;27.00;79.70
35894;DHT22;21994;48.204;16.516;2023-08-08T11:20:09;27.10;81.90
35894;DHT22;21994;48.204;16.516;2023-08-08T11:22:37;27.30;78.50
35894;DHT22;21994;48.204;16.516;2023-08-08T11:25:06;26.90;77.10
35894;DHT22;21994;48.204;16.516;2023-08-08T11:27:39;26.30;77.00
35894;DHT22;21994;48.204;16.516;2023-08-08T11:30:13;25.70;77.00
35894;DHT22;21994;48.204;16.516;2023-08-08T11:32:39;25.30;80.30
35894;DHT22;21994;48.204;16.516;2023-08-08T11:35:05;25.30;79.10
35894;DHT22;21994;48.204;16.516;2023-08-08T11:37:31;25.00;81.60
35894;DHT22;21994;48.204;16.516;2023-08-08T11:39:57;25.20;82.50
35894;DHT22;21994;48.204;16.516;2023-08-08T11:42:22;25.20;80.90
35894;DHT22;21994;48.204;16.516;2023-08-08T11:44:48;25.20;80.70
35894;DHT22;21994;48.204;16.516;2023-08-08T11:47:15;25.20;81.40
35894;DHT22;21994;48.204;16.516;2023-08-08T11:49:41;25.40;81.60
35894;DHT22;21994;48.204;16.516;2023-08-08T11:52:10;25.10;78.60
35894;DHT22;21994;48.204;16.516;2023-08-08T11:54:37;25.10;80.90
35894;DHT22;21994;48.204;16.516;2023-08-08T11:57:04;25.20;82.50
35894;DHT22;21994;48.204;16.516;2023-08-08T11:59:30;25.20;80.40
35894;DHT22;21994;48.204;16.516;2023-08-08T12:01:56;25.30;80.80
35894;DHT22;21994;48.204;16.516;2023-08-08T12:04:22;25.30;78.30
35894;DHT22;21994;48.204;16.516;2023-08-08T12:06:49;25.20;79.00
35894;DHT22;21994;48.204;16.516;2023-08-08T12:09:15;24.90;78.10
35894;DHT22;21994;48.204;16.516;2023-08-08T12:11:41;24.80;83.40
35894;DHT22;21994;48.204;16.516;2023-08-08T12:14:10;24.80;80.80
35894;DHT22;21994;48.204;16.516;2023-08-08T12:16:37;24.70;79.50
35894;DHT22;21994;48.204;16.516;2023-08-08T12:19:06;24.80;80.50
35894;DHT22;21994;48.204;16.516;2023-08-08T12:21:32;25.00;82.60
35894;DHT22;21994;48.204;16.516;2023-08-08T12:23:58;25.20;81.20
35894;DHT22;21994;48.204;16.516;2023-08-08T12:26:25;24.90;75.60
35894;DHT22;21994;48.204;16.516;2023-08-08T12:28:51;24.80;78.00
35894;DHT22;21994;48.204;16.516;2023-08-08T12:31:19;24.90;80.00
35894;DHT22;21994;48.204;16.516;2023-08-08T12:33:45;25.10;76.90
35894;DHT22;21994;48.204;16.516;2023-08-08T12:36:11;25.10;78.40
35894;DHT22;21994;48.204;16.516;2023-08-08T12:38:37;25.30;77.40
35894;DHT22;21994;48.204;16.516;2023-08-08T12:41:03;25.40;80.30
35894;DHT22;21994;48.204;16.516;2023-08-08T12:43:29;25.40;80.10
35894;DHT22;21994;48.204;16.516;2023-08-08T12:45:55;25.40;77.50
35894;DHT22;21994;48.204;16.516;2023-08-08T12:48:21;25.20;77.50
35894;DHT22;21994;48.204;16.516;2023-08-08T12:50:46;25.20;76.70
35894;DHT22;21994;48.204;16.516;2023-08-08T12:53:12;24.90;76.10
35894;DHT22;21994;48.204;16.516;2023-08-08T12:55:39;25.00;77.70
35894;DHT22;21994;48.204;16.516;2023-08-08T12:58:04;25.00;76.40
35894;DHT22;21994;48.204;16.516;2023-08-08T13:00:30;25.00;75.50
35894;DHT22;21994;48.204;16.516;2023-08-08T13:02:56;24.80;76.30
35894;DHT22;21994;48.204;16.516;2023-08-08T13:05:22;24.60;74.80
35894;DHT22;21994;48.204;16.516;2023-08-08T13:07:48;24.50;76.20
35894;DHT22;21994;48.204;16.516;2023-08-08T13:10:13;24.60;79.90
35894;DHT22;21994;48.204;16.516;2023-08-08T13:12:39;24.80;79.70
35894;DHT22;21994;48.204;16.516;2023-08-08T13:15:05;24.90;78.00
35894;DHT22;21994;48.204;16.516;2023-08-08T13:17:32;24.90;77.10
35894;DHT22;21994;48.204;16.516;2023-08-08T13:20:00;25.00;75.10
35894;DHT22;21994;48.204;16.516;2023-08-08T13:22:26;24.90;79.60
35894;DHT22;21994;48.204;16.516;2023-08-08T13:24:51;25.00;75.60
35894;DHT22;21994;48.204;16.516;2023-08-08T13:27:17;25.00;74.30
35894;DHT22;21994;48.204;16.516;2023-08-08T13:29:43;24.90;75.40
35894;DHT22;21994;48.204;16.516;2023-08-08T13:32:09;24.80;77.10
35894;DHT22;21994;48.204;16.516;2023-08-08T13:34:34;24.80;74.80
35894;DHT22;21994;48.204;16.516;2023-08-08T13:37:00;24.80;74.50
35894;DHT22;21994;48.204;16.516;2023-08-08T13:39:26;24.70;75.40
35894;DHT22;21994;48.204;16.516;2023-08-08T13:41:54;24.50;74.80
35894;DHT22;21994;48.204;16.516;2023-08-08T13:44:20;24.60;74.60
35894;DHT22;21994;48.204;16.516;2023-08-08T13:46:46;24.60;74.00
35894;DHT22;21994;48.204;16.516;2023-08-08T13:49:12;24.50;73.00
35894;DHT22;21994;48.204;16.516;2023-08-08T13:51:37;24.40;73.00
35894;DHT22;21994;48.204;16.516;2023-08-08T13:54:03;24.30;75.60
35894;DHT22;21994;48.204;16.516;2023-08-08T13:56:29;24.40;76.30
35894;DHT22;21994;48.204;16.516;2023-08-08T13:58:55;24.50;76.20
35894;DHT22;21994;48.204;16.516;2023-08-08T14:01:21;24.70;77.90
35894;DHT22;21994;48.204;16.516;2023-08-08T14:03:46;24.80;75.70
35894;DHT22;21994;48.204;16.516;2023-08-08T14:06:12;25.00;79.70
35894;DHT22;21994;48.204;16.516;2023-08-08T14:08:38;25.00;75.10
35894;DHT22;21994;48.204;16.516;2023-08-08T14:11:04;24.90;73.00
35894;DHT22;21994;48.204;16.516;2023-08-08T14:13:30;24.60;76.10
35894;DHT22;21994;48.204;16.516;2023-08-08T14:15:55;24.50;75.10
35894;DHT22;21994;48.204;16.516;2023-08-08T14:18:21;24.60;76.80
35894;DHT22;21994;48.204;16.516;2023-08-08T14:20:47;24.60;74.80
35894;DHT22;21994;48.204;16.516;2023-08-08T14:23:13;24.50;75.30
35894;DHT22;21994;48.204;16.516;2023-08-08T14:25:39;24.60;76.10
35894;DHT22;21994;48.204;16.516;2023-08-08T14:28:04;24.60;75.70
35894;DHT22;21994;48.204;16.516;2023-08-08T14:30:30;24.60;72.50
35894;DHT22;21994;48.204;16.516;2023-08-08T14:32:56;24.60;73.20
35894;DHT22;21994;48.204;16.516;2023-08-08T14:35:22;24.60;78.40
35894;DHT22;21994;48.204;16.516;2023-08-08T14:37:48;24.70;79.50
35894;DHT22;21994;48.204;16.516;2023-08-08T14:40:14;24.80;81.80
35894;DHT22;21994;48.204;16.516;2023-08-08T14:42:39;24.90;79.30
35894;DHT22;21994;48.204;16.516;2023-08-08T14:45:05;24.80;79.40
35894;DHT22;21994;48.204;16.516;2023-08-08T14:47:32;24.60;80.10
35894;DHT22;21994;48.204;16.516;2023-08-08T14:49:57;24.30;81.30
35894;DHT22;21994;48.204;16.516;2023-08-08T14:52:23;24.00;83.10
35894;DHT22;21994;48.204;16.516;2023-08-08T14:54:50;23.80;82.60
35894;DHT22;21994;48.204;16.516;2023-08-08T14:57:16;23.60;82.60
35894;DHT22;21994;48.204;16.516;2023-08-08T14:59:42;23.40;85.60
35894;DHT22;21994;48.204;16.516;2023-08-08T15:02:08;23.20;87.10
35894;DHT22;21994;48.204;16.516;2023-08-08T15:04:34;23.10;85.30
35894;DHT22;21994;48.204;16.516;2023-08-08T15:06:59;23.00;86.60
35894;DHT22;21994;48.204;16.516;2023-08-08T15:09:25;23.00;84.90
35894;DHT22;21994;48.204;16.516;2023-08-08T15:11:51;22.90;84.80
35894;DHT22;21994;48.204;16.516;2023-08-08T15:14:17;22.80;85.10
35894;DHT22;21994;48.204;16.516;2023-08-08T15:16:48;22.70;86.70
35894;DHT22;21994;48.204;16.516;2023-08-08T15:19:17;22.70;87.20
35894;DHT22;21994;48.204;16.516;2023-08-08T15:21:43;22.60;87.20
35894;DHT22;21994;48.204;16.516;2023-08-08T15:24:08;22.60;88.50
35894;DHT22;21994;48.204;16.516;2023-08-08T15:26:35;22.50;90.00
35894;DHT22;21994;48.204;16.516;2023-08-08T15:29:01;22.40;90.00
35894;DHT22;21994;48.204;16.516;2023-08-08T15:31:26;22.40;91.00
35894;DHT22;21994;48.204;16.516;2023-08-08T15:33:52;22.30;89.90
35894;DHT22;21994;48.204;16.516;2023-08-08T15:36:18;22.30;87.10
35894;DHT22;21994;48.204;16.516;2023-08-08T15:38:44;22.20;87.60
35894;DHT22;21994;48.204;16.516;2023-08-08T15:41:10;22.20;90.20
35894;DHT22;21994;48.204;16.516;2023-08-08T15:43:37;22.10;87.20
35894;DHT22;21994;48.204;16.516;2023-08-08T15:46:04;22.00;89.00
35894;DHT22;21994;48.204;16.516;2023-08-08T15:48:30;22.00;89.20
35894;DHT22;21994;48.204;16.516;2023-08-08T15:50:57;21.90;89.10
35894;DHT22;21994;48.204;16.516;2023-08-08T15:53:23;22.00;89.00
35894;DHT22;21994;48.204;16.516;2023-08-08T15:55:49;22.00;89.90
35894;DHT22;21994;48.204;16.516;2023-08-08T15:58:15;22.00;89.40
35894;DHT22;21994;48.204;16.516;2023-08-08T16:00:41;22.00;90.80